createdAt,value
2022-11-12T00:00:46.791Z,13.43
2022-11-12T00:03:13.169Z,13.38
2022-11-12T00:05:39.552Z,11.70
2022-11-12T00:08:05.978Z,11.40
2022-11-12T00:10:32.375Z,12.77
2022-11-12T00:12:59.338Z,11.20
2022-11-12T00:15:26.349Z,11.73
2022-11-12T00:17:53.195Z,11.68
2022-11-12T00:20:19.598Z,11.38
2022-11-12T00:22:45.999Z,11.82
2022-11-12T00:25:12.385Z,12.57
2022-11-12T00:27:38.791Z,10.80
2022-11-12T00:30:05.825Z,10.85
2022-11-12T00:32:32.238Z,12.38
2022-11-12T00:35:02.418Z,11.38
2022-11-12T00:37:29.347Z,12.20
2022-11-12T00:39:55.708Z,11.82
2022-11-12T00:42:22.073Z,11.40
2022-11-12T00:44:49.823Z,11.30
2022-11-12T00:47:16.635Z,10.65
2022-11-12T00:49:43.163Z,10.18
2022-11-12T00:52:09.565Z,10.10
2022-11-12T00:54:35.926Z,11.02
2022-11-12T00:57:02.298Z,9.93
2022-11-12T00:59:28.756Z,11.32
2022-11-12T01:01:55.157Z,10.60
2022-11-12T01:04:21.522Z,10.95
2022-11-12T01:06:47.912Z,8.90
2022-11-12T01:09:14.313Z,9.48
2022-11-12T01:11:41.498Z,11.52
2022-11-12T01:14:09.131Z,10.95
2022-11-12T01:16:37.874Z,10.20
2022-11-12T01:19:06.214Z,10.32
2022-11-12T01:21:33.705Z,10.05
2022-11-12T01:24:01.338Z,10.23
2022-11-12T01:26:31.088Z,10.98
2022-11-12T01:28:57.675Z,9.57
2022-11-12T01:31:30.189Z,9.65
2022-11-12T01:33:58.566Z,9.73
2022-11-12T01:36:26.584Z,9.10
2022-11-12T01:38:53.964Z,8.80
2022-11-12T01:41:25.676Z,9.40
2022-11-12T01:44:12.492Z,9.27
2022-11-12T01:47:06.155Z,9.30
2022-11-12T01:49:41.935Z,9.40
2022-11-12T01:52:34.766Z,9.82
2022-11-12T01:55:08.274Z,10.38
2022-11-12T01:57:39.549Z,9.75
2022-11-12T02:00:10.062Z,9.17
2022-11-12T02:02:36.954Z,10.45
2022-11-12T02:05:06.736Z,9.93
2022-11-12T02:07:34.450Z,11.02
2022-11-12T02:10:02.273Z,10.45
2022-11-12T02:12:47.307Z,10.45
2022-11-12T02:15:13.979Z,11.25
2022-11-12T02:17:40.343Z,11.30
2022-11-12T02:20:10.694Z,11.57
2022-11-12T02:22:37.082Z,10.43
2022-11-12T02:25:03.815Z,11.20
2022-11-12T02:27:30.256Z,10.35
2022-11-12T02:29:56.721Z,10.75
2022-11-12T02:32:23.091Z,11.27
2022-11-12T02:34:49.455Z,9.15
2022-11-12T02:37:15.814Z,9.65
2022-11-12T02:39:42.185Z,9.63
2022-11-12T02:42:08.554Z,10.35
2022-11-12T02:44:34.991Z,9.95
2022-11-12T02:47:01.392Z,9.55
2022-11-12T02:49:27.797Z,9.60
2022-11-12T02:51:54.217Z,9.35
2022-11-12T02:54:20.589Z,10.43
2022-11-12T02:56:46.976Z,9.63
2022-11-12T02:59:13.355Z,9.50
2022-11-12T03:01:39.717Z,8.98
2022-11-12T03:04:06.112Z,9.00
2022-11-12T03:06:32.473Z,9.50
2022-11-12T03:08:58.846Z,9.98
2022-11-12T03:11:25.244Z,11.00
2022-11-12T03:13:51.616Z,10.05
2022-11-12T03:16:18.003Z,11.25
2022-11-12T03:18:44.439Z,11.60
2022-11-12T03:21:10.816Z,12.05
2022-11-12T03:23:37.183Z,11.27
2022-11-12T03:26:04.402Z,11.98
2022-11-12T03:28:30.976Z,10.73
2022-11-12T03:30:59.257Z,10.65
2022-11-12T03:33:25.764Z,10.70
2022-11-12T03:35:52.303Z,11.65
2022-11-12T03:38:18.740Z,11.57
2022-11-12T03:40:45.141Z,12.35
2022-11-12T03:43:11.527Z,11.73
2022-11-12T03:45:37.914Z,12.82
2022-11-12T03:48:04.467Z,13.68
2022-11-12T03:50:30.959Z,13.40
2022-11-12T03:52:58.980Z,13.25
2022-11-12T03:55:27.807Z,12.90
2022-11-12T03:57:54.609Z,11.63
2022-11-12T04:00:22.325Z,12.02
2022-11-12T04:02:48.891Z,11.45
2022-11-12T04:05:34.472Z,10.32
2022-11-12T04:08:31.039Z,10.52
2022-11-12T04:10:57.409Z,10.20
2022-11-12T04:13:29.688Z,12.52
2022-11-12T04:19:00.214Z,10.50
2022-11-12T04:21:49.519Z,11.95
2022-11-12T04:24:38.466Z,13.70
2022-11-12T04:27:04.886Z,12.80
2022-11-12T04:29:50.420Z,14.63
2022-11-12T04:32:17.087Z,16.08
2022-11-12T04:34:43.556Z,16.30
2022-11-12T04:37:10.003Z,17.23
2022-11-12T04:39:36.372Z,17.98
2022-11-12T04:42:21.764Z,16.02
2022-11-12T04:44:57.168Z,17.70
2022-11-12T04:47:23.633Z,22.45
2022-11-12T04:49:49.999Z,18.45
2022-11-12T04:52:16.540Z,18.00
2022-11-12T04:54:42.899Z,17.67
2022-11-12T04:57:09.308Z,18.27
2022-11-12T04:59:35.673Z,19.80
2022-11-12T05:02:02.147Z,18.35
2022-11-12T05:04:29.235Z,29.95
2022-11-12T05:06:56.912Z,20.13
2022-11-12T05:09:25.712Z,23.30
2022-11-12T05:11:52.779Z,20.05
2022-11-12T05:14:19.189Z,19.35
2022-11-12T05:16:45.762Z,18.80
2022-11-12T05:19:12.179Z,16.05
2022-11-12T05:21:57.026Z,15.20
2022-11-12T05:24:40.928Z,15.00
2022-11-12T05:27:14.106Z,13.48
2022-11-12T05:29:40.755Z,14.10
2022-11-12T05:32:08.016Z,14.07
2022-11-12T05:34:34.724Z,15.00
2022-11-12T05:37:03.106Z,16.98
2022-11-12T05:39:29.883Z,20.45
2022-11-12T05:42:12.454Z,19.95
2022-11-12T05:44:39.575Z,21.90
2022-11-12T05:47:05.922Z,20.45
2022-11-12T05:49:32.396Z,20.80
2022-11-12T05:51:58.817Z,28.33
2022-11-12T05:54:25.222Z,23.60
2022-11-12T05:56:53.317Z,18.98
2022-11-12T05:59:19.749Z,17.52
2022-11-12T06:01:46.191Z,13.75
2022-11-12T06:04:16.542Z,12.65
2022-11-12T06:06:43.649Z,13.30
2022-11-12T06:09:10.491Z,14.05
2022-11-12T06:11:37.548Z,13.52
2022-11-12T06:14:04.460Z,12.32
2022-11-12T06:16:31.368Z,13.10
2022-11-12T06:18:58.350Z,14.82
2022-11-12T06:21:24.802Z,14.05
2022-11-12T06:24:00.479Z,13.65
2022-11-12T06:26:28.566Z,14.07
2022-11-12T06:28:55.516Z,12.35
2022-11-12T06:31:22.399Z,14.13
2022-11-12T06:33:49.032Z,14.48
2022-11-12T06:36:17.532Z,17.00
2022-11-12T06:38:44.111Z,13.32
2022-11-12T06:41:11.977Z,14.50
2022-11-12T06:43:38.954Z,14.07
2022-11-12T06:46:16.502Z,15.43
2022-11-12T06:48:42.999Z,14.25
2022-11-12T06:51:17.626Z,14.73
2022-11-12T06:53:44.175Z,14.75
2022-11-12T06:56:10.678Z,15.98
2022-11-12T06:58:37.212Z,15.52
2022-11-12T07:01:10.946Z,17.38
2022-11-12T07:03:39.230Z,16.45
2022-11-12T07:06:07.851Z,16.38
2022-11-12T07:08:34.716Z,16.58
2022-11-12T07:11:01.183Z,15.52
2022-11-12T07:13:30.343Z,19.95
2022-11-12T07:15:58.526Z,16.70
2022-11-12T07:18:25.544Z,17.63
2022-11-12T07:20:52.199Z,15.52
2022-11-12T07:23:18.571Z,13.68
2022-11-12T07:25:44.937Z,14.15
2022-11-12T07:28:11.294Z,14.40
2022-11-12T07:30:37.789Z,14.55
2022-11-12T07:33:04.215Z,14.68
2022-11-12T07:35:30.791Z,14.38
2022-11-12T07:37:59.697Z,14.80
2022-11-12T07:40:26.211Z,15.75
2022-11-12T07:42:52.602Z,15.93
2022-11-12T07:45:19.016Z,15.30
2022-11-12T07:47:45.388Z,14.48
2022-11-12T07:50:11.749Z,15.45
2022-11-12T07:52:38.147Z,15.88
2022-11-12T07:55:04.974Z,15.93
2022-11-12T07:57:33.130Z,15.77
2022-11-12T07:59:59.495Z,15.75
2022-11-12T08:02:25.874Z,14.82
2022-11-12T08:04:52.574Z,14.73
2022-11-12T08:07:19.060Z,15.38
2022-11-12T08:09:45.500Z,14.93
2022-11-12T08:12:11.873Z,13.20
2022-11-12T08:14:38.220Z,14.43
2022-11-12T08:17:04.600Z,16.17
2022-11-12T08:19:30.948Z,17.23
2022-11-12T08:21:57.316Z,17.42
2022-11-12T08:24:23.685Z,18.75
2022-11-12T08:26:50.147Z,17.45
2022-11-12T08:29:16.500Z,17.23
2022-11-12T08:31:42.881Z,17.58
2022-11-12T08:34:12.535Z,17.05
2022-11-12T08:36:40.209Z,16.92
2022-11-12T08:39:07.328Z,16.48
2022-11-12T08:41:33.983Z,13.50
2022-11-12T08:44:05.548Z,13.50
2022-11-12T08:46:34.641Z,13.20
2022-11-12T08:49:01.038Z,12.18
2022-11-12T08:51:27.405Z,12.20
2022-11-12T08:53:53.768Z,11.98
2022-11-12T08:56:20.117Z,11.25
2022-11-12T08:58:46.489Z,10.90
2022-11-12T09:01:12.997Z,11.00
2022-11-12T09:03:39.454Z,11.55
2022-11-12T09:06:06.096Z,10.95
2022-11-12T09:08:34.381Z,11.77
2022-11-12T09:11:00.757Z,11.75
2022-11-12T09:13:27.156Z,11.52
2022-11-12T09:15:53.557Z,11.35
2022-11-12T09:18:20.024Z,11.02
2022-11-12T09:20:46.681Z,10.90
2022-11-12T09:23:15.142Z,10.45
2022-11-12T09:25:41.970Z,10.73
2022-11-12T09:28:10.033Z,9.45
2022-11-12T09:30:38.036Z,10.70
2022-11-12T09:33:04.791Z,10.55
2022-11-12T09:35:31.295Z,10.27
2022-11-12T09:37:59.314Z,10.18
2022-11-12T09:40:39.241Z,10.63
2022-11-12T09:43:11.552Z,10.10
2022-11-12T09:45:37.922Z,10.52
2022-11-12T09:48:09.123Z,10.10
2022-11-12T09:50:43.172Z,9.55
2022-11-12T09:53:18.598Z,9.27
2022-11-12T09:55:49.514Z,10.70
2022-11-12T09:58:17.530Z,9.82
2022-11-12T10:00:58.885Z,10.48
2022-11-12T10:03:37.112Z,9.55
2022-11-12T10:06:19.151Z,9.80
2022-11-12T10:08:58.524Z,10.05
2022-11-12T10:12:02.841Z,9.32
2022-11-12T10:14:52.795Z,10.18
2022-11-12T10:17:39.229Z,9.63
2022-11-12T10:20:22.906Z,13.88
2022-11-12T10:23:13.945Z,18.58
2022-11-12T10:25:43.669Z,19.42
2022-11-12T10:28:43.805Z,18.48
2022-11-12T10:31:18.720Z,18.70
2022-11-12T10:33:45.317Z,17.77
2022-11-12T10:36:23.526Z,18.85
2022-11-12T10:38:52.985Z,19.67
2022-11-12T10:41:28.720Z,21.02
2022-11-12T10:43:59.186Z,18.45
2022-11-12T10:46:31.012Z,17.92
2022-11-12T10:49:02.619Z,17.25
2022-11-12T10:51:34.564Z,20.33
2022-11-12T10:54:34.842Z,18.58
2022-11-12T10:57:25.462Z,20.48
2022-11-12T11:00:12.013Z,19.23
2022-11-12T11:02:46.956Z,19.02
2022-11-12T11:05:27.426Z,18.60
2022-11-12T11:07:53.803Z,19.00
2022-11-12T11:10:29.092Z,18.15
2022-11-12T11:13:21.727Z,17.40
2022-11-12T11:18:24.189Z,13.90
2022-11-12T11:21:04.966Z,13.40
2022-11-12T11:23:42.587Z,14.38
2022-11-12T11:26:38.666Z,13.80
2022-11-12T11:29:35.873Z,12.07
2022-11-12T11:32:20.996Z,11.88
2022-11-12T11:35:27.480Z,11.70
2022-11-12T11:38:11.138Z,12.05
2022-11-12T11:40:46.612Z,12.60
2022-11-12T11:43:36.192Z,12.68
2022-11-12T11:46:16.671Z,12.43
2022-11-12T11:49:17.531Z,11.10
2022-11-12T11:51:55.009Z,9.82
2022-11-12T11:55:04.492Z,9.13
2022-11-12T11:57:43.932Z,9.00
2022-11-12T12:00:13.317Z,10.15
2022-11-12T12:03:05.983Z,8.32
2022-11-12T12:05:46.124Z,9.40
2022-11-12T12:08:29.748Z,9.60
2022-11-12T12:11:15.854Z,8.60
2022-11-12T12:13:45.135Z,8.38
2022-11-12T12:16:22.261Z,8.32
2022-11-12T12:19:20.756Z,8.00
2022-11-12T12:21:50.378Z,7.57
2022-11-12T12:24:30.337Z,8.05
2022-11-12T12:27:12.332Z,7.47
2022-11-12T12:29:45.496Z,7.13
2022-11-12T12:32:27.134Z,7.20
2022-11-12T12:35:21.966Z,7.20
2022-11-12T12:37:55.560Z,7.70
2022-11-12T12:40:26.428Z,7.70
2022-11-12T12:42:57.245Z,6.43
2022-11-12T12:45:36.391Z,6.63
2022-11-12T12:48:04.940Z,6.53
2022-11-12T12:50:31.603Z,6.30
2022-11-12T12:53:04.181Z,5.75
2022-11-12T12:55:52.315Z,5.78
2022-11-12T12:58:32.002Z,6.35
2022-11-12T13:01:21.846Z,4.57
2022-11-12T13:03:51.249Z,4.97
2022-11-12T13:06:23.822Z,5.40
2022-11-12T13:09:02.655Z,5.32
2022-11-12T13:12:00.030Z,4.78
2022-11-12T13:14:35.209Z,4.88
2022-11-12T13:17:08.831Z,4.60
2022-11-12T13:20:09.362Z,4.70
2022-11-12T13:22:38.703Z,4.63
2022-11-12T13:25:06.567Z,4.45
2022-11-12T13:27:53.188Z,4.20
2022-11-12T13:30:22.221Z,4.07
2022-11-12T13:32:48.755Z,4.80
2022-11-12T13:35:21.753Z,4.25
2022-11-12T13:37:56.764Z,5.13
2022-11-12T13:40:23.111Z,6.18
2022-11-12T13:42:50.127Z,5.15
2022-11-12T13:45:22.723Z,4.43
2022-11-12T13:47:49.191Z,5.15
2022-11-12T13:50:23.334Z,5.18
2022-11-12T13:52:50.113Z,4.53
2022-11-12T13:55:21.256Z,4.70
2022-11-12T13:57:55.518Z,4.95
2022-11-12T14:00:25.868Z,4.78
2022-11-12T14:02:55.783Z,5.20
2022-11-12T14:05:25.453Z,5.28
2022-11-12T14:08:10.329Z,5.70
2022-11-12T14:10:49.818Z,5.25
2022-11-12T14:13:34.643Z,5.97
2022-11-12T14:16:19.167Z,6.60
2022-11-12T14:19:04.354Z,6.72
2022-11-12T14:21:30.764Z,5.88
2022-11-12T14:23:57.240Z,6.43
2022-11-12T14:26:41.039Z,5.95
2022-11-12T14:29:14.081Z,6.70
2022-11-12T14:31:40.466Z,6.28
2022-11-12T14:34:27.044Z,6.22
2022-11-12T14:36:55.879Z,6.35
2022-11-12T14:39:24.212Z,6.97
2022-11-12T14:41:50.880Z,6.88
2022-11-12T14:44:26.650Z,6.25
2022-11-12T14:46:55.070Z,7.32
2022-11-12T14:49:45.201Z,7.07
2022-11-12T14:52:23.149Z,6.90
2022-11-12T14:54:55.237Z,7.05
2022-11-12T14:57:27.622Z,6.78
2022-11-12T14:59:54.583Z,5.88
2022-11-12T15:02:42.294Z,7.07
2022-11-12T15:07:59.268Z,5.47
2022-11-12T15:10:37.435Z,5.57
2022-11-12T15:13:07.048Z,5.90
2022-11-12T15:15:34.546Z,5.90
2022-11-12T15:18:03.535Z,5.40
2022-11-12T15:20:29.938Z,6.88
2022-11-12T15:22:56.602Z,5.75
2022-11-12T15:25:30.964Z,5.53
2022-11-12T15:28:13.075Z,6.20
2022-11-12T15:30:39.533Z,6.00
2022-11-12T15:33:11.998Z,5.75
2022-11-12T15:35:43.846Z,5.10
2022-11-12T15:38:14.320Z,5.57
2022-11-12T15:40:45.609Z,5.32
2022-11-12T15:43:14.422Z,5.87
2022-11-12T15:45:40.852Z,6.53
2022-11-12T15:48:11.425Z,6.32
2022-11-12T15:50:39.040Z,5.72
2022-11-12T15:53:05.793Z,5.03
2022-11-12T15:55:33.322Z,5.82
2022-11-12T15:57:59.827Z,5.18
2022-11-12T16:00:31.716Z,6.28
2022-11-12T16:03:02.298Z,5.82
2022-11-12T16:05:28.647Z,6.15
2022-11-12T16:07:55.010Z,6.32
2022-11-12T16:10:21.378Z,6.28
2022-11-12T16:12:48.033Z,6.68
2022-11-12T16:15:15.890Z,14.55
2022-11-12T16:17:42.355Z,15.77
2022-11-12T16:20:16.808Z,31.13
2022-11-12T16:22:43.225Z,14.20
2022-11-12T16:25:10.136Z,9.63
2022-11-12T16:27:38.204Z,11.13
2022-11-12T16:30:07.259Z,8.38
2022-11-12T16:32:33.616Z,8.48
2022-11-12T16:35:01.271Z,9.40
2022-11-12T16:37:27.980Z,8.90
2022-11-12T16:39:54.339Z,8.05
2022-11-12T16:42:20.698Z,7.40
2022-11-12T16:44:47.045Z,6.57
2022-11-12T16:47:13.512Z,7.13
2022-11-12T16:49:40.510Z,6.93
2022-11-12T16:52:09.094Z,7.03
2022-11-12T16:54:35.452Z,6.38
2022-11-12T16:57:01.837Z,7.00
2022-11-12T16:59:28.305Z,7.40
2022-11-12T17:01:54.687Z,10.02
2022-11-12T17:04:24.055Z,10.20
2022-11-12T17:06:50.445Z,12.63
2022-11-12T17:09:16.934Z,10.90
2022-11-12T17:11:43.289Z,10.05
2022-11-12T17:14:10.955Z,8.20
2022-11-12T17:16:37.342Z,9.18
2022-11-12T17:19:04.073Z,9.18
2022-11-12T17:21:30.518Z,9.23
2022-11-12T17:23:57.872Z,10.98
2022-11-12T17:26:24.441Z,14.52
2022-11-12T17:28:57.094Z,18.23
2022-11-12T17:31:25.848Z,18.23
2022-11-12T17:33:52.994Z,18.10
2022-11-12T17:36:21.784Z,17.10
2022-11-12T17:38:48.269Z,17.17
2022-11-12T17:41:14.862Z,16.77
2022-11-12T17:43:41.544Z,21.77
2022-11-12T17:46:09.497Z,19.80
2022-11-12T17:48:36.895Z,18.42
2022-11-12T17:51:08.737Z,19.90
2022-11-12T17:53:36.062Z,21.85
2022-11-12T17:56:02.744Z,30.60
2022-11-12T17:58:29.523Z,27.95
2022-11-12T18:00:57.034Z,25.85
2022-11-12T18:03:23.454Z,25.10
2022-11-12T18:05:59.981Z,37.47
2022-11-12T18:08:26.388Z,44.13
2022-11-12T18:10:52.938Z,41.75
2022-11-12T18:13:19.381Z,34.75
2022-11-12T18:15:45.855Z,34.10
2022-11-12T18:18:12.411Z,18.90
2022-11-12T18:20:39.404Z,16.95
2022-11-12T18:23:05.870Z,23.10
2022-11-12T18:25:32.261Z,22.27
2022-11-12T18:27:58.744Z,24.65
2022-11-12T18:30:25.174Z,29.65
2022-11-12T18:32:51.575Z,29.85
2022-11-12T18:35:17.980Z,29.15
2022-11-12T18:37:44.533Z,26.05
2022-11-12T18:40:11.307Z,24.20
2022-11-12T18:42:37.677Z,21.80
2022-11-12T18:45:04.295Z,22.55
2022-11-12T18:47:30.777Z,19.63
2022-11-12T18:49:57.142Z,20.40
2022-11-12T18:52:23.583Z,21.15
2022-11-12T18:54:50.020Z,25.10
2022-11-12T18:57:16.454Z,29.88
2022-11-12T18:59:42.908Z,29.55
2022-11-12T19:02:12.071Z,32.05
2022-11-12T19:04:44.044Z,27.20
2022-11-12T19:07:11.758Z,30.30
2022-11-12T19:09:38.229Z,28.90
2022-11-12T19:12:04.856Z,27.08
2022-11-12T19:14:31.234Z,27.95
2022-11-12T19:16:57.970Z,27.63
2022-11-12T19:19:24.335Z,29.90
2022-11-12T19:21:50.706Z,30.42
2022-11-12T19:24:17.164Z,27.92
2022-11-12T19:26:43.642Z,29.02
2022-11-12T19:29:10.059Z,26.70
2022-11-12T19:31:36.808Z,27.08
2022-11-12T19:34:03.230Z,30.05
2022-11-12T19:36:29.719Z,30.77
2022-11-12T19:38:57.418Z,31.85
2022-11-12T19:41:24.206Z,28.08
2022-11-12T19:43:51.390Z,24.60
2022-11-12T19:46:17.986Z,22.63
2022-11-12T19:48:44.644Z,21.88
2022-11-12T19:51:12.383Z,22.85
2022-11-12T19:53:44.204Z,25.98
2022-11-12T19:56:16.878Z,26.02
2022-11-12T19:58:48.138Z,25.33
2022-11-12T20:01:17.700Z,24.67
2022-11-12T20:03:44.469Z,23.45
2022-11-12T20:06:13.824Z,19.92
2022-11-12T20:08:40.648Z,17.88
2022-11-12T20:11:07.018Z,17.33
2022-11-12T20:13:33.385Z,17.85
2022-11-12T20:15:59.790Z,17.95
2022-11-12T20:18:26.955Z,22.73
2022-11-12T20:20:56.264Z,33.97
2022-11-12T20:23:23.713Z,32.53
2022-11-12T20:25:51.156Z,29.60
2022-11-12T20:28:18.095Z,26.75
2022-11-12T20:30:45.055Z,26.65
2022-11-12T20:33:13.423Z,26.27
2022-11-12T20:35:39.825Z,29.20
2022-11-12T20:38:06.469Z,29.95
2022-11-12T20:40:33.079Z,29.38
2022-11-12T20:42:59.477Z,32.78
2022-11-12T20:45:27.002Z,33.13
2022-11-12T20:47:54.994Z,31.13
2022-11-12T20:50:21.493Z,28.15
2022-11-12T20:52:48.067Z,26.95
2022-11-12T20:55:14.509Z,26.02
2022-11-12T20:57:40.902Z,26.25
2022-11-12T21:00:13.264Z,24.58
2022-11-12T21:02:40.419Z,24.98
2022-11-12T21:05:07.123Z,24.73
2022-11-12T21:07:33.663Z,23.60
2022-11-12T21:10:00.198Z,21.60
2022-11-12T21:12:26.583Z,20.42
2022-11-12T21:14:52.974Z,21.80
2022-11-12T21:17:19.734Z,22.90
2022-11-12T21:19:46.155Z,21.88
2022-11-12T21:22:14.718Z,22.23
2022-11-12T21:24:41.112Z,21.73
2022-11-12T21:27:07.500Z,22.25
2022-11-12T21:29:34.604Z,23.63
2022-11-12T21:32:01.014Z,25.58
2022-11-12T21:34:27.466Z,23.83
2022-11-12T21:36:53.827Z,25.88
2022-11-12T21:39:20.703Z,25.02
2022-11-12T21:41:47.075Z,25.92
2022-11-12T21:44:13.452Z,26.73
2022-11-12T21:46:40.379Z,25.70
2022-11-12T21:49:06.788Z,25.35
2022-11-12T21:51:33.512Z,24.65
2022-11-12T21:54:05.119Z,25.50
2022-11-12T21:56:33.265Z,26.25
2022-11-12T21:59:01.131Z,29.63
2022-11-12T22:01:29.430Z,28.48
2022-11-12T22:03:57.120Z,29.95
2022-11-12T22:06:25.523Z,33.80
2022-11-12T22:08:52.976Z,37.55
2022-11-12T22:11:19.816Z,39.60
2022-11-12T22:13:46.436Z,38.65
2022-11-12T22:16:19.520Z,35.90
2022-11-12T22:18:48.379Z,33.72
2022-11-12T22:21:17.282Z,32.63
2022-11-12T22:23:43.982Z,35.20
2022-11-12T22:26:15.129Z,33.53
2022-11-12T22:28:41.940Z,32.58
2022-11-12T22:31:11.687Z,32.03
2022-11-12T22:33:38.625Z,30.30
2022-11-12T22:36:13.281Z,27.77
2022-11-12T22:38:41.800Z,29.00
2022-11-12T22:41:10.917Z,28.50
2022-11-12T22:43:37.979Z,26.98
2022-11-12T22:46:09.898Z,28.83
2022-11-12T22:48:36.499Z,28.73
2022-11-12T22:51:05.302Z,27.92
2022-11-12T22:53:31.993Z,28.45
2022-11-12T22:56:05.807Z,36.58
2022-11-12T22:58:39.975Z,33.30
2022-11-12T23:01:08.913Z,36.75
2022-11-12T23:03:35.795Z,37.40
2022-11-12T23:06:04.812Z,35.45
2022-11-12T23:08:31.719Z,29.70
2022-11-12T23:11:02.538Z,30.08
2022-11-12T23:13:28.905Z,29.65
2022-11-12T23:15:55.311Z,26.98
2022-11-12T23:18:21.726Z,29.83
2022-11-12T23:20:48.102Z,28.55
2022-11-12T23:23:14.467Z,28.05
2022-11-12T23:25:40.928Z,27.27
2022-11-12T23:28:07.671Z,31.02
2022-11-12T23:30:35.308Z,29.38
2022-11-12T23:33:02.077Z,29.10
2022-11-12T23:35:29.831Z,29.13
2022-11-12T23:37:56.187Z,28.40
2022-11-12T23:40:24.292Z,27.05
2022-11-12T23:42:53.728Z,29.17
2022-11-12T23:45:20.099Z,27.33
2022-11-12T23:47:46.474Z,27.77
2022-11-12T23:50:12.911Z,27.70
2022-11-12T23:52:39.278Z,28.27
2022-11-12T23:55:05.779Z,26.70
2022-11-12T23:57:32.873Z,24.60
2022-11-12T23:59:59.253Z,37.55
